Sunfield, Michigan
Current Conditions -  °F | °C
As of 3:33 AM on Monday 26 Jan 2015 (Local Time) from KY70 Reporting Station
Clear Clear  
Wind Chill:   Ceiling: Unl
Heat Index: 11°   Visibility: 10mi
Dew Point:   Wind: 5mph
Humidity: 86%   Direction: 60°ENE
Pressure: 29.97"   Gusts: NA
Location:  42.76°N, 84.99°W
Report Text: KY70 260833Z AUTO 06004KT 10SM CLR M12/M14 A2997 RMK AO2 T11171136
Loading
Personal Weather Stations






























Interactive Weather Map New forecast layout! Learn more

10-Day Weather Forecast

Advertisements
Track Severe Weather on mobile